createdAt,value
2023-04-15T00:01:19.490Z,75.46
2023-04-15T00:03:48.624Z,75.80
2023-04-15T00:06:16.965Z,75.63
2023-04-15T00:08:46.310Z,75.80
2023-04-15T00:11:15.295Z,75.68
2023-04-15T00:13:44.066Z,75.58
2023-04-15T00:16:12.945Z,75.45
2023-04-15T00:18:41.369Z,75.52
2023-04-15T00:21:09.764Z,75.35
2023-04-15T00:23:38.151Z,75.24
2023-04-15T00:26:06.404Z,75.44
2023-04-15T00:28:34.489Z,75.41
2023-04-15T00:31:04.621Z,75.30
2023-04-15T00:33:32.973Z,75.55
2023-04-15T00:36:01.146Z,76.37
2023-04-15T00:38:29.663Z,76.00
2023-04-15T00:40:57.703Z,75.51
2023-04-15T00:43:26.687Z,75.36
2023-04-15T00:45:57.461Z,75.29
2023-04-15T00:48:28.080Z,75.37
2023-04-15T00:50:56.338Z,75.40
2023-04-15T00:53:24.608Z,75.58
2023-04-15T00:55:53.856Z,76.28
2023-04-15T00:58:21.979Z,77.12
2023-04-15T01:00:54.442Z,77.27
2023-04-15T01:03:23.127Z,77.11
2023-04-15T01:05:58.425Z,76.44
2023-04-15T01:08:30.563Z,76.03
2023-04-15T01:11:02.296Z,75.82
2023-04-15T01:13:31.317Z,75.77
2023-04-15T01:15:59.622Z,78.40
2023-04-15T01:18:28.216Z,77.71
2023-04-15T01:20:56.682Z,77.07
2023-04-15T01:23:25.556Z,76.95
2023-04-15T01:25:54.453Z,76.86
2023-04-15T01:28:22.712Z,76.54
2023-04-15T01:30:51.286Z,76.93
2023-04-15T01:33:19.411Z,76.74
2023-04-15T01:35:48.148Z,76.75
2023-04-15T01:38:16.480Z,76.62
2023-04-15T01:40:46.618Z,77.40
2023-04-15T01:43:15.556Z,77.33
2023-04-15T01:45:43.933Z,77.07
2023-04-15T01:48:12.527Z,76.99
2023-04-15T01:50:43.709Z,77.41
2023-04-15T01:53:12.235Z,77.19
2023-04-15T01:55:41.240Z,77.07
2023-04-15T01:58:17.287Z,77.13
2023-04-15T02:00:48.374Z,78.48
2023-04-15T02:03:18.130Z,78.98
2023-04-15T02:05:46.420Z,79.69
2023-04-15T02:08:14.493Z,79.39
2023-04-15T02:10:42.766Z,79.46
2023-04-15T02:13:11.142Z,79.46
2023-04-15T02:15:39.642Z,78.69
2023-04-15T02:18:08.212Z,77.87
2023-04-15T02:20:38.231Z,77.41
2023-04-15T02:23:07.527Z,77.71
2023-04-15T02:25:37.370Z,77.13
2023-04-15T02:28:06.956Z,76.71
2023-04-15T02:30:35.332Z,76.52
2023-04-15T02:33:04.174Z,76.28
2023-04-15T02:35:32.264Z,76.31
2023-04-15T02:38:12.157Z,76.60
2023-04-15T02:40:40.652Z,76.29
2023-04-15T02:43:09.138Z,76.17
2023-04-15T02:45:37.462Z,75.98
2023-04-15T02:48:26.345Z,75.87
2023-04-15T02:50:54.836Z,76.09
2023-04-15T02:53:22.897Z,75.98
2023-04-15T02:55:51.338Z,76.09
2023-04-15T02:58:19.858Z,76.06
2023-04-15T03:00:51.947Z,76.12
2023-04-15T03:03:20.476Z,76.33
2023-04-15T03:05:48.783Z,76.04
2023-04-15T03:08:17.369Z,75.86
2023-04-15T03:10:45.644Z,76.12
2023-04-15T03:13:14.023Z,77.04
2023-04-15T03:15:42.343Z,76.64
2023-04-15T03:18:11.477Z,76.51
2023-04-15T03:20:41.995Z,76.46
2023-04-15T03:23:10.718Z,76.77
2023-04-15T03:25:39.198Z,77.56
2023-04-15T03:28:10.345Z,76.90
2023-04-15T03:30:38.477Z,77.08
2023-04-15T03:33:07.158Z,77.16
2023-04-15T03:35:35.535Z,77.01
2023-04-15T03:38:03.792Z,77.89
2023-04-15T03:40:32.031Z,77.66
2023-04-15T03:43:00.068Z,77.50
2023-04-15T03:45:28.243Z,77.46
2023-04-15T03:47:57.370Z,77.54
2023-04-15T03:50:28.932Z,77.58
2023-04-15T03:52:57.031Z,79.22
2023-04-15T03:55:25.688Z,79.14
2023-04-15T03:57:53.861Z,79.89
2023-04-15T04:00:22.077Z,79.08
2023-04-15T04:02:50.820Z,78.29
2023-04-15T04:05:19.307Z,77.91
2023-04-15T04:07:47.688Z,77.82
2023-04-15T04:10:15.965Z,77.79
2023-04-15T04:12:44.134Z,77.55
2023-04-15T04:15:12.535Z,77.47
2023-04-15T04:17:40.888Z,77.45
2023-04-15T04:20:09.583Z,77.97
2023-04-15T04:22:40.108Z,78.26
2023-04-15T04:25:10.151Z,78.69
2023-04-15T04:27:38.612Z,78.06
2023-04-15T04:30:08.157Z,77.71
2023-04-15T04:32:36.219Z,77.92
2023-04-15T04:35:05.332Z,78.83
2023-04-15T04:37:33.406Z,79.51
2023-04-15T04:40:01.620Z,79.31
2023-04-15T04:42:30.313Z,79.36
2023-04-15T04:44:58.598Z,80.21
2023-04-15T04:47:27.009Z,79.86
2023-04-15T04:49:55.008Z,79.24
2023-04-15T04:52:23.423Z,78.89
2023-04-15T04:54:51.804Z,79.61
2023-04-15T04:57:23.272Z,78.94
2023-04-15T04:59:51.285Z,78.29
2023-04-15T05:02:19.773Z,77.86
2023-04-15T05:04:48.014Z,77.34
2023-04-15T05:07:16.194Z,76.85
2023-04-15T05:09:44.456Z,76.49
2023-04-15T05:12:15.090Z,76.19
2023-04-15T05:14:43.246Z,75.71
2023-04-15T05:17:11.820Z,75.38
2023-04-15T05:19:40.021Z,74.96
2023-04-15T05:22:08.483Z,74.85
2023-04-15T05:24:36.663Z,73.56
2023-04-15T05:27:05.042Z,71.57
2023-04-15T05:29:36.688Z,70.96
2023-04-15T05:32:05.275Z,70.38
2023-04-15T05:34:33.755Z,70.11
2023-04-15T05:37:02.449Z,69.83
2023-04-15T05:39:32.695Z,69.39
2023-04-15T05:42:02.798Z,69.32
2023-04-15T05:44:31.065Z,68.86
2023-04-15T05:47:00.167Z,68.18
2023-04-15T05:49:28.338Z,68.55
2023-04-15T05:51:56.509Z,68.91
2023-04-15T05:54:26.748Z,68.66
2023-04-15T05:56:54.966Z,68.42
2023-04-15T05:59:23.281Z,68.18
2023-04-15T06:01:52.332Z,68.36
2023-04-15T06:04:20.865Z,67.72
2023-04-15T06:06:49.237Z,67.43
2023-04-15T06:09:19.871Z,66.68
2023-04-15T06:11:48.167Z,66.94
2023-04-15T06:14:16.426Z,67.68
2023-04-15T06:16:44.641Z,67.93
2023-04-15T06:19:16.055Z,67.12
2023-04-15T06:21:44.815Z,66.59
2023-04-15T06:24:13.530Z,66.47
2023-04-15T06:26:50.827Z,66.47
2023-04-15T06:29:22.162Z,66.94
2023-04-15T06:31:50.697Z,67.21
2023-04-15T06:34:19.129Z,67.27
2023-04-15T06:36:47.303Z,66.97
2023-04-15T06:39:15.580Z,66.74
2023-04-15T06:41:43.855Z,64.14
2023-04-15T06:44:11.926Z,55.79
2023-04-15T06:46:40.733Z,51.51
2023-04-15T06:49:08.887Z,47.56
2023-04-15T06:51:37.567Z,41.81
2023-04-15T06:54:06.463Z,41.85
2023-04-15T06:56:38.522Z,40.20
2023-04-15T06:59:06.804Z,42.64
2023-04-15T07:01:35.024Z,43.37
2023-04-15T07:04:24.625Z,43.09
2023-04-15T07:06:53.144Z,43.60
2023-04-15T07:09:22.921Z,43.79
2023-04-15T07:11:51.664Z,43.81
2023-04-15T07:14:19.921Z,44.71
2023-04-15T07:16:48.646Z,45.81
2023-04-15T07:19:17.503Z,47.15
2023-04-15T07:21:45.973Z,48.01
2023-04-15T07:24:17.534Z,48.46
2023-04-15T07:26:54.968Z,47.82
2023-04-15T07:29:26.490Z,47.72
2023-04-15T07:31:54.747Z,47.46
2023-04-15T07:34:23.029Z,46.11
2023-04-15T07:36:52.180Z,45.77
2023-04-15T07:39:22.853Z,43.41
2023-04-15T07:41:51.194Z,42.06
2023-04-15T07:44:19.520Z,41.10
2023-04-15T07:46:48.303Z,40.27
2023-04-15T07:49:16.376Z,41.09
2023-04-15T07:51:44.770Z,39.03
2023-04-15T07:54:12.935Z,38.51
2023-04-15T07:56:41.819Z,39.57
2023-04-15T07:59:10.606Z,38.86
2023-04-15T08:01:39.097Z,37.97
2023-04-15T08:04:07.459Z,36.99
2023-04-15T08:06:36.706Z,37.91
2023-04-15T08:09:05.054Z,36.91
2023-04-15T08:11:33.158Z,37.83
2023-04-15T08:14:01.917Z,37.30
2023-04-15T08:16:30.185Z,37.66
2023-04-15T08:18:58.678Z,36.79
2023-04-15T08:21:27.867Z,36.27
2023-04-15T08:23:56.768Z,35.96
2023-04-15T08:26:25.029Z,35.94
2023-04-15T08:28:53.414Z,35.60
2023-04-15T08:31:22.079Z,35.14
2023-04-15T08:33:52.558Z,35.20
2023-04-15T08:36:21.005Z,35.66
2023-04-15T08:38:49.287Z,34.79
2023-04-15T08:41:23.684Z,35.90
2023-04-15T08:43:58.892Z,36.55
2023-04-15T08:46:27.863Z,37.12
2023-04-15T08:48:57.752Z,36.55
2023-04-15T08:51:27.283Z,36.13
2023-04-15T08:53:55.595Z,37.33
2023-04-15T08:56:29.048Z,37.94
2023-04-15T08:58:57.938Z,36.98
2023-04-15T09:01:26.821Z,37.23
2023-04-15T09:03:59.963Z,36.42
2023-04-15T09:06:28.592Z,35.61
2023-04-15T09:08:57.698Z,34.41
2023-04-15T09:11:29.149Z,35.09
2023-04-15T09:13:57.728Z,34.62
2023-04-15T09:16:26.142Z,34.64
2023-04-15T09:18:54.573Z,34.32
2023-04-15T09:21:23.684Z,34.13
2023-04-15T09:23:56.412Z,34.09
2023-04-15T09:26:35.064Z,34.69
2023-04-15T09:29:08.376Z,34.60
2023-04-15T09:31:37.874Z,34.64
2023-04-15T09:34:07.076Z,33.96
2023-04-15T09:36:49.136Z,33.39
2023-04-15T09:39:19.008Z,33.36
2023-04-15T09:41:47.885Z,32.27
2023-04-15T09:44:26.911Z,32.65
2023-04-15T09:46:55.124Z,32.90
2023-04-15T09:49:23.409Z,33.21
2023-04-15T09:52:04.441Z,34.51
2023-04-15T09:54:38.732Z,35.39
2023-04-15T09:57:10.881Z,36.35
2023-04-15T09:59:40.539Z,37.34
2023-04-15T10:02:08.882Z,37.47
2023-04-15T10:04:52.143Z,37.87
2023-04-15T10:07:22.682Z,38.99
2023-04-15T10:09:51.357Z,39.21
2023-04-15T10:12:21.067Z,39.48
2023-04-15T10:14:56.915Z,38.00
2023-04-15T10:17:31.200Z,37.54
2023-04-15T10:20:13.209Z,37.87
2023-04-15T10:22:42.442Z,37.74
2023-04-15T10:25:18.638Z,37.54
2023-04-15T10:27:48.826Z,37.25
2023-04-15T10:30:17.641Z,37.23
2023-04-15T10:32:46.432Z,37.86
2023-04-15T10:35:15.198Z,37.87
2023-04-15T10:37:53.499Z,38.06
2023-04-15T10:40:32.231Z,36.97
2023-04-15T10:43:02.889Z,37.43
2023-04-15T10:45:39.223Z,36.96
2023-04-15T10:48:10.033Z,36.51
2023-04-15T10:50:39.533Z,36.52
2023-04-15T10:53:10.746Z,35.14
2023-04-15T10:55:41.544Z,32.93
2023-04-15T10:58:13.626Z,33.01
2023-04-15T11:01:00.139Z,33.84
2023-04-15T11:03:39.322Z,32.30
2023-04-15T11:06:16.735Z,34.00
2023-04-15T11:09:26.964Z,34.17
2023-04-15T11:12:13.619Z,33.13
2023-04-15T11:14:43.499Z,33.18
2023-04-15T11:17:12.019Z,33.63
2023-04-15T11:19:40.282Z,33.54
2023-04-15T11:22:12.698Z,33.46
2023-04-15T11:24:50.603Z,33.43
2023-04-15T11:27:23.500Z,32.81
2023-04-15T11:29:52.446Z,32.83
2023-04-15T11:32:21.819Z,32.85
2023-04-15T11:34:52.173Z,32.53
2023-04-15T11:37:29.346Z,33.42
2023-04-15T11:39:57.413Z,34.16
2023-04-15T11:42:26.879Z,33.01
2023-04-15T11:45:11.072Z,32.41
2023-04-15T11:47:40.252Z,32.68
2023-04-15T11:50:18.120Z,32.49
2023-04-15T11:52:57.421Z,32.50
2023-04-15T11:55:26.403Z,33.02
2023-04-15T11:58:19.678Z,32.78
2023-04-15T12:00:54.216Z,32.30
2023-04-15T12:03:26.052Z,32.91
2023-04-15T12:06:22.068Z,32.60
2023-04-15T12:09:00.523Z,32.62
2023-04-15T12:11:37.320Z,32.10
2023-04-15T12:14:13.116Z,31.86
2023-04-15T12:16:54.287Z,31.02
2023-04-15T12:19:42.956Z,30.91
2023-04-15T12:22:16.155Z,31.23
2023-04-15T12:24:48.040Z,32.39
2023-04-15T12:27:17.423Z,32.59
2023-04-15T12:29:45.525Z,32.92
2023-04-15T12:32:20.989Z,32.78
2023-04-15T12:34:54.392Z,31.82
2023-04-15T12:37:23.153Z,31.77
2023-04-15T12:39:52.515Z,31.98
2023-04-15T12:42:20.898Z,32.23
2023-04-15T12:44:49.071Z,32.33
2023-04-15T12:47:17.385Z,32.18
2023-04-15T12:49:45.939Z,31.10
2023-04-15T12:52:15.237Z,30.98
2023-04-15T12:54:43.412Z,31.42
2023-04-15T12:57:11.694Z,31.71
2023-04-15T12:59:40.166Z,30.67
2023-04-15T13:02:08.287Z,30.68
2023-04-15T13:04:37.003Z,31.37
2023-04-15T13:07:05.203Z,31.25
2023-04-15T13:09:33.578Z,32.10
2023-04-15T13:12:01.755Z,32.48
2023-04-15T13:14:30.188Z,32.92
2023-04-15T13:16:59.533Z,33.26
2023-04-15T13:19:27.931Z,32.62
2023-04-15T13:21:56.333Z,33.85
2023-04-15T13:24:24.468Z,34.75
2023-04-15T13:26:53.664Z,35.23
2023-04-15T13:29:22.365Z,34.77
2023-04-15T13:31:50.702Z,34.87
2023-04-15T13:34:18.903Z,34.81
2023-04-15T13:36:47.430Z,34.82
2023-04-15T13:39:15.781Z,34.21
2023-04-15T13:41:43.850Z,34.32
2023-04-15T13:44:12.792Z,34.07
2023-04-15T13:46:42.683Z,33.63
2023-04-15T13:49:10.834Z,34.10
2023-04-15T13:51:38.993Z,33.97
2023-04-15T13:54:07.668Z,34.13
2023-04-15T13:56:36.163Z,34.86
2023-04-15T13:59:04.550Z,34.56
2023-04-15T14:01:32.855Z,34.18
2023-04-15T14:04:01.575Z,33.93
2023-04-15T14:06:31.742Z,33.79
2023-04-15T14:09:00.004Z,33.01
2023-04-15T14:11:30.950Z,32.05
2023-04-15T14:13:59.012Z,32.12
2023-04-15T14:16:27.350Z,32.26
2023-04-15T14:18:57.990Z,32.03
2023-04-15T14:21:30.111Z,31.21
2023-04-15T14:23:58.979Z,31.08
2023-04-15T14:26:30.022Z,31.80
2023-04-15T14:28:58.253Z,31.87
2023-04-15T14:31:26.565Z,31.77
2023-04-15T14:33:54.955Z,31.73
2023-04-15T14:36:23.088Z,31.84
2023-04-15T14:38:51.299Z,32.36
2023-04-15T14:41:19.629Z,32.22
2023-04-15T14:43:47.844Z,32.30
2023-04-15T14:46:16.353Z,31.93
2023-04-15T14:48:44.714Z,32.66
2023-04-15T14:51:13.243Z,32.90
2023-04-15T14:53:41.481Z,33.55
2023-04-15T14:56:09.751Z,33.96
2023-04-15T14:58:38.035Z,34.26
2023-04-15T15:01:06.768Z,34.19
2023-04-15T15:03:35.396Z,34.97
2023-04-15T15:06:04.190Z,35.42
2023-04-15T15:08:32.475Z,35.26
2023-04-15T15:11:00.643Z,35.27
2023-04-15T15:13:28.816Z,35.42
2023-04-15T15:15:59.860Z,35.66
2023-04-15T15:18:28.341Z,35.79
2023-04-15T15:20:56.415Z,35.86
2023-04-15T15:23:24.502Z,37.71
2023-04-15T15:25:52.877Z,39.68
2023-04-15T15:28:21.967Z,42.07
2023-04-15T15:30:49.930Z,45.91
2023-04-15T15:33:21.790Z,48.76
2023-04-15T15:35:53.669Z,50.96
2023-04-15T15:38:40.791Z,53.55
2023-04-15T15:41:09.053Z,54.62
2023-04-15T15:43:37.429Z,56.33
2023-04-15T15:46:05.955Z,57.26
2023-04-15T15:48:34.420Z,54.79
2023-04-15T15:51:11.560Z,53.66
2023-04-15T15:53:39.852Z,49.74
2023-04-15T15:56:08.232Z,49.55
2023-04-15T15:58:36.412Z,49.27
2023-04-15T16:01:04.926Z,49.29
2023-04-15T16:03:33.354Z,51.56
2023-04-15T16:06:01.747Z,50.73
2023-04-15T16:08:29.919Z,51.92
2023-04-15T16:10:58.405Z,50.29
2023-04-15T16:13:26.553Z,48.84
2023-04-15T16:15:54.659Z,48.97
2023-04-15T16:18:22.939Z,47.81
2023-04-15T16:20:51.334Z,47.31
2023-04-15T16:23:20.133Z,47.86
2023-04-15T16:25:51.563Z,48.88
2023-04-15T16:28:26.443Z,49.11
2023-04-15T16:30:56.390Z,49.87
2023-04-15T16:33:24.666Z,50.48
2023-04-15T16:35:53.048Z,49.35
2023-04-15T16:38:21.534Z,47.54
2023-04-15T16:40:50.042Z,48.86
2023-04-15T16:43:18.398Z,49.30
2023-04-15T16:45:51.076Z,51.02
2023-04-15T16:48:20.637Z,51.23
2023-04-15T16:50:49.323Z,52.95
2023-04-15T16:53:17.932Z,52.72
2023-04-15T16:55:46.034Z,52.45
2023-04-15T16:58:14.507Z,52.91
2023-04-15T17:00:43.671Z,53.35
2023-04-15T17:03:12.205Z,53.34
2023-04-15T17:05:42.382Z,52.30
2023-04-15T17:08:10.907Z,51.91
2023-04-15T17:10:41.722Z,52.84
2023-04-15T17:13:10.178Z,53.27
2023-04-15T17:15:38.475Z,54.12
2023-04-15T17:18:06.597Z,54.09
2023-04-15T17:20:34.940Z,54.30
2023-04-15T17:23:04.229Z,54.76
2023-04-15T17:25:32.421Z,54.85
2023-04-15T17:28:00.835Z,55.40
2023-04-15T17:30:29.075Z,55.70
2023-04-15T17:32:57.243Z,56.37
2023-04-15T17:35:26.339Z,56.06
2023-04-15T17:37:54.615Z,56.10
2023-04-15T17:40:22.886Z,56.14
2023-04-15T17:42:51.278Z,56.01
2023-04-15T17:45:19.465Z,57.07
2023-04-15T17:47:48.397Z,57.69
2023-04-15T17:50:16.554Z,57.59
2023-04-15T17:52:44.889Z,58.24
2023-04-15T17:55:15.998Z,57.37
2023-04-15T17:57:46.310Z,57.76
2023-04-15T18:00:14.913Z,57.47
2023-04-15T18:02:43.357Z,58.06
2023-04-15T18:05:12.365Z,57.73
2023-04-15T18:07:40.587Z,58.41
2023-04-15T18:10:12.613Z,59.37
2023-04-15T18:12:40.949Z,60.34
2023-04-15T18:15:10.073Z,58.38
2023-04-15T18:17:38.280Z,57.67
2023-04-15T18:20:07.149Z,57.76
2023-04-15T18:22:35.676Z,59.31
2023-04-15T18:25:04.766Z,59.72
2023-04-15T18:27:34.389Z,60.61
2023-04-15T18:30:02.616Z,62.26
2023-04-15T18:32:33.016Z,62.03
2023-04-15T18:35:01.586Z,61.56
2023-04-15T18:37:29.690Z,61.61
2023-04-15T18:40:00.530Z,61.21
2023-04-15T18:42:28.870Z,63.71
2023-04-15T18:45:06.976Z,64.85
2023-04-15T18:47:35.481Z,64.75
2023-04-15T18:50:04.133Z,64.39
2023-04-15T18:52:33.850Z,64.54
2023-04-15T18:55:03.416Z,65.15
2023-04-15T18:57:35.150Z,64.08
2023-04-15T19:00:05.637Z,63.78
2023-04-15T19:02:33.982Z,63.58
2023-04-15T19:05:04.518Z,63.68
2023-04-15T19:07:43.265Z,63.47
2023-04-15T19:10:19.322Z,62.81
2023-04-15T19:12:50.773Z,63.08
2023-04-15T19:15:19.187Z,63.32
2023-04-15T19:17:47.528Z,63.44
2023-04-15T19:20:30.151Z,64.14
2023-04-15T19:23:11.328Z,64.74
2023-04-15T19:25:50.341Z,64.80
2023-04-15T19:28:18.575Z,65.34
2023-04-15T19:30:46.843Z,64.50
2023-04-15T19:33:18.359Z,64.27
2023-04-15T19:35:49.930Z,64.62
2023-04-15T19:38:24.236Z,64.14
2023-04-15T19:40:53.330Z,64.33
2023-04-15T19:43:21.814Z,64.75
2023-04-15T19:45:53.105Z,65.25
2023-04-15T19:48:22.796Z,65.73
2023-04-15T19:50:51.044Z,66.07
2023-04-15T19:53:19.319Z,65.86
2023-04-15T19:55:48.526Z,65.74
2023-04-15T19:58:16.815Z,65.78
2023-04-15T20:00:44.801Z,66.11
2023-04-15T20:03:13.380Z,65.85
2023-04-15T20:05:42.151Z,65.78
2023-04-15T20:08:10.336Z,65.99
2023-04-15T20:10:38.763Z,66.41
2023-04-15T20:13:07.177Z,66.45
2023-04-15T20:15:35.601Z,66.67
2023-04-15T20:18:04.131Z,66.76
2023-04-15T20:20:34.479Z,66.67
2023-04-15T20:23:02.736Z,66.20
2023-04-15T20:25:31.116Z,67.64
2023-04-15T20:28:02.870Z,68.10
2023-04-15T20:30:34.331Z,67.88
2023-04-15T20:33:02.664Z,68.05
2023-04-15T20:35:31.132Z,68.40
2023-04-15T20:37:59.875Z,68.27
2023-04-15T20:40:28.667Z,68.76
2023-04-15T20:42:56.837Z,69.04
2023-04-15T20:45:24.902Z,70.19
2023-04-15T20:47:54.852Z,68.01
2023-04-15T20:50:23.038Z,67.19
2023-04-15T20:52:52.193Z,67.37
2023-04-15T20:55:20.677Z,68.11
2023-04-15T20:57:48.977Z,67.96
2023-04-15T21:00:17.236Z,67.85
2023-04-15T21:02:45.402Z,67.71
2023-04-15T21:05:13.686Z,67.98
2023-04-15T21:07:41.884Z,68.34
2023-04-15T21:10:10.694Z,69.05
2023-04-15T21:12:40.893Z,70.29
2023-04-15T21:15:09.765Z,69.38
2023-04-15T21:17:38.714Z,68.94
2023-04-15T21:20:07.674Z,68.44
2023-04-15T21:22:38.896Z,67.70
2023-04-15T21:25:07.580Z,68.29
2023-04-15T21:27:35.752Z,70.14
2023-04-15T21:30:04.646Z,70.52
2023-04-15T21:32:32.776Z,69.46
2023-04-15T21:35:01.303Z,69.24
2023-04-15T21:37:29.539Z,69.12
2023-04-15T21:39:57.751Z,69.10
2023-04-15T21:42:26.294Z,68.88
2023-04-15T21:44:54.491Z,69.47
2023-04-15T21:47:22.814Z,70.32
2023-04-15T21:49:51.271Z,69.85
2023-04-15T21:52:19.442Z,69.65
2023-04-15T21:54:47.624Z,69.38
2023-04-15T21:57:15.900Z,69.29
2023-04-15T21:59:44.168Z,69.03
2023-04-15T22:02:12.599Z,69.41
2023-04-15T22:04:41.143Z,69.60
2023-04-15T22:07:09.211Z,69.47
2023-04-15T22:09:37.377Z,68.78
2023-04-15T22:12:05.986Z,69.48
2023-04-15T22:14:34.138Z,69.71
2023-04-15T22:17:02.252Z,69.44
2023-04-15T22:19:32.789Z,69.54
2023-04-15T22:22:03.438Z,69.64
2023-04-15T22:24:39.910Z,69.73
2023-04-15T22:27:09.652Z,69.93
2023-04-15T22:29:37.826Z,69.89
2023-04-15T22:32:07.139Z,69.91
2023-04-15T22:34:35.330Z,69.86
2023-04-15T22:37:03.589Z,69.77
2023-04-15T22:39:31.729Z,70.33
2023-04-15T22:41:59.731Z,70.26
2023-04-15T22:44:27.804Z,69.06
2023-04-15T22:46:56.196Z,70.82
2023-04-15T22:49:24.870Z,73.01
2023-04-15T22:51:53.462Z,72.74
2023-04-15T22:54:21.833Z,73.68
2023-04-15T22:56:50.216Z,72.38
2023-04-15T22:59:18.385Z,72.00
2023-04-15T23:01:46.841Z,71.49
2023-04-15T23:04:23.718Z,71.69
2023-04-15T23:06:54.385Z,71.94
2023-04-15T23:09:23.595Z,72.00
2023-04-15T23:11:56.304Z,72.59
2023-04-15T23:14:28.176Z,72.61
2023-04-15T23:17:07.032Z,72.43
2023-04-15T23:19:38.095Z,72.10
2023-04-15T23:22:07.372Z,72.02
2023-04-15T23:24:35.753Z,73.54
2023-04-15T23:27:04.191Z,73.03
2023-04-15T23:29:32.318Z,72.10
2023-04-15T23:32:00.612Z,72.42
2023-04-15T23:34:28.782Z,72.63
2023-04-15T23:36:57.138Z,74.51
2023-04-15T23:39:25.116Z,75.51
2023-04-15T23:41:53.664Z,74.53
2023-04-15T23:44:22.430Z,73.96
2023-04-15T23:46:51.443Z,73.79
2023-04-15T23:49:20.473Z,73.49
2023-04-15T23:51:48.843Z,73.60
2023-04-15T23:54:17.026Z,73.73
2023-04-15T23:56:45.014Z,73.70
2023-04-15T23:59:13.070Z,73.65
